Stormwatcher's Retreat Logo




                  Temp     Hi    Low   Out    Dew  Wind  Wind   Wind    Hi    Hi   Wind   Heat    THW   THSW                Rain  Solar   Solar Hi Solar   UV    UV    Hi     Heat    Cool    In     In    In     In     In   In Air          Wind  Wind    ISS   Arc.
  Date    Time     Out   Temp   Temp   Hum    Pt. Speed   Dir    Run Speed   Dir  Chill  Index  Index  Index   Bar    Rain  Rate   Rad.  Energy    Rad.  Index  Dose   UV     D-D     D-D    Temp   Hum    Dew   Heat    EMC Density     ET   Samp   Tx   Recept  Int.
------------------------------------------------------------------------------------------------------------------------------------------------------------------------------------------------------------------------------------------------------------------------
 1/19/21 12:10a   45.0   45.2   44.9    84   40.5   6.0   ENE   1.00  16.0    SE   41.7   44.9   41.6   38.1  30.430  0.00  0.00     0     0.00      0     0.0  0.00   0.0   0.139   0.000   69.1    49   49.1   67.6   9.07  .0754    0.000   204    7    100.0   10 
 1/19/21 12:20a   44.9   45.1   44.8    83   40.0   3.0     E   0.50   9.0   ENE   43.9   44.8   43.8   40.3  30.429  0.00  0.00     0     0.00      0     0.0  0.00   0.0   0.140   0.000   69.0    49   49.0   67.5   9.07  .0755    0.000   203    7    100.0   10 
 1/19/21 12:30a   44.5   44.9   44.5    83   39.7   4.0     E   0.67  10.0     E   42.5   44.4   42.4   38.8  30.429  0.00  0.00     0     0.00      0     0.0  0.00   0.0   0.142   0.000   68.9    49   48.9   67.4   9.07  .0755    0.000   203    7    100.0   10 
 1/19/21 12:40a   44.1   44.5   44.1    84   39.6   4.0   ESE   0.67  11.0     E   42.0   44.0   41.9   38.3  30.422  0.00  0.00     0     0.00      0     0.0  0.00   0.0   0.145   0.000   68.8    49   48.9   67.3   9.07  .0755    0.000   204    7    100.0   10 
 1/19/21 12:50a   43.6   44.1   43.6    84   39.1   5.0   ESE   0.83  11.0    SE   40.7   43.5   40.6   37.0  30.421  0.00  0.00     0     0.00      0     0.0  0.00   0.0   0.149   0.000   68.8    49   48.9   67.3   9.07  .0755    0.000   204    7    100.0   10 
 1/19/21  1:00a   43.4   43.7   43.4    85   39.2   5.0   ESE   0.83  11.0   SSE   40.5   43.3   40.4   36.8  30.422  0.00  0.00     0     0.00      0     0.0  0.00   0.0   0.150   0.000   68.7    49   48.8   67.2   9.08  .0755    0.001   204    7    100.0   10 
 1/19/21  1:10a   43.4   43.5   43.4    85   39.2   4.0    SE   0.67  11.0   SSE   41.2   43.3   41.1   37.5  30.425  0.00  0.00     0     0.00      0     0.0  0.00   0.0   0.150   0.000   68.6    49   48.7   67.1   9.08  .0755    0.000   201    7    100.0   10 
 1/19/21  1:20a   43.3   43.6   43.3    84   38.8   3.0   ESE   0.50   8.0     E   42.1   43.2   42.0   38.4  30.429  0.00  0.00     0     0.00      0     0.0  0.00   0.0   0.151   0.000   68.6    49   48.7   67.1   9.08  .0755    0.000   204    7    100.0   10 
 1/19/21  1:30a   42.8   43.3   42.8    84   38.3   2.0   ESE   0.33   7.0   ESE   42.8   42.6   42.6   39.0  30.430  0.00  0.00     0     0.00      0     0.0  0.00   0.0   0.154   0.000   68.5    49   48.6   67.1   9.08  .0756    0.000   205    7    100.0   10 
 1/19/21  1:40a   42.3   42.9   42.3    85   38.1   3.0   ESE   0.50   8.0     E   41.0   42.1   40.8   37.2  30.426  0.00  0.00     0     0.00      0     0.0  0.00   0.0   0.158   0.000   68.4    49   48.5   67.0   9.08  .0756    0.000   202    7    100.0   10 
 1/19/21  1:50a   42.0   42.3   42.0    86   38.1   4.0   ESE   0.67   8.0     E   39.6   41.8   39.4   35.8  30.427  0.00  0.00     0     0.00      0     0.0  0.00   0.0   0.160   0.000   68.3    49   48.4   66.9   9.08  .0756    0.000   201    7    100.0   10 
 1/19/21  2:00a   41.9   42.1   41.9    86   38.0   3.0   ESE   0.50   7.0    SE   40.5   41.7   40.3   36.7  30.429  0.00  0.00     0     0.00      0     0.0  0.00   0.0   0.160   0.000   68.3    49   48.4   66.9   9.08  .0756    0.001   202    7    100.0   10 
 1/19/21  2:10a   41.6   41.9   41.6    86   37.7   2.0     E   0.33   7.0     E   41.6   41.4   41.4   37.8  30.432  0.00  0.00     0     0.00      0     0.0  0.00   0.0   0.163   0.000   68.2    49   48.3   66.8   9.09  .0756    0.000   204    7    100.0   10 
 1/19/21  2:20a   41.2   41.7   41.2    86   37.3   1.0     E   0.17   4.0    SE   41.2   41.0   41.0   37.4  30.436  0.00  0.00     0     0.00      0     0.0  0.00   0.0   0.165   0.000   68.1    49   48.2   66.7   9.09  .0756    0.000   202    7    100.0   10 
 1/19/21  2:30a   40.7   41.2   40.6    86   36.8   1.0     E   0.17   4.0     E   40.7   40.5   40.5   36.8  30.439  0.00  0.00     0     0.00      0     0.0  0.00   0.0   0.169   0.000   68.1    49   48.2   66.7   9.09  .0756    0.000   203    7    100.0   10 
 1/19/21  2:40a   40.3   40.7   40.3    86   36.4   2.0     E   0.33   4.0     E   40.1   40.1   39.9   36.2  30.437  0.00  0.00     0     0.00      0     0.0  0.00   0.0   0.172   0.000   68.0    49   48.1   66.6   9.09  .0757    0.000   202    7    100.0   10 
 1/19/21  2:50a   40.2   40.3   40.1    87   36.6   1.0     E   0.17   3.0     E   40.2   40.0   40.0   36.3  30.439  0.00  0.00     0     0.00      0     0.0  0.00   0.0   0.172   0.000   67.9    49   48.0   66.5   9.09  .0757    0.000   203    7    100.0   10 
 1/19/21  3:00a   40.1   40.2   40.0    88   36.8   1.0     E   0.17   4.0     E   40.1   40.0   40.0   36.3  30.434  0.00  0.00     0     0.00      0     0.0  0.00   0.0   0.173   0.000   67.9    49   48.0   66.5   9.09  .0757    0.000   201    7    100.0   10 
 1/19/21  3:10a   40.8   40.8   40.1    88   37.5   3.0     E   0.50   8.0    SE   39.3   40.7   39.2   35.6  30.429  0.00  0.00     0     0.00      0     0.0  0.00   0.0   0.168   0.000   67.8    49   47.9   66.4   9.09  .0757    0.000   203    7    100.0   10 
 1/19/21  3:20a   41.0   41.0   40.8    87   37.4   2.0     E   0.33   8.0   ESE   40.9   40.8   40.7   37.1  30.426  0.00  0.00     0     0.00      0     0.0  0.00   0.0   0.167   0.000   67.7    49   47.8   66.3   9.10  .0757    0.000   203    7    100.0   10 
 1/19/21  3:30a   40.8   41.0   40.8    87   37.2   1.0     E   0.17   3.0     E   40.8   40.6   40.6   37.0  30.422  0.00  0.00     0     0.00      0     0.0  0.00   0.0   0.168   0.000   67.6    49   47.8   66.2   9.10  .0757    0.000   201    7    100.0   10 
 1/19/21  3:40a   40.3   40.8   40.3    87   36.7   1.0     E   0.17   3.0     E   40.3   40.1   40.1   36.4  30.420  0.00  0.00     0     0.00      0     0.0  0.00   0.0   0.172   0.000   67.6    49   47.8   66.2   9.10  .0757    0.000   202    7    100.0   10 
 1/19/21  3:50a   39.8   40.3   39.8    87   36.2   1.0     E   0.17   3.0     E   39.8   39.6   39.6   35.9  30.419  0.00  0.00     0     0.00      0     0.0  0.00   0.0   0.175   0.000   67.5    49   47.7   66.1   9.10  .0757    0.000   200    7    100.0   10 
 1/19/21  4:00a   39.4   39.8   39.4    87   35.9   1.0   ESE   0.17   3.0   ESE   39.4   39.2   39.2   35.5  30.423  0.00  0.00     0     0.00      0     0.0  0.00   0.0   0.178   0.000   67.4    49   47.6   65.9   9.10  .0757    0.000   205    7    100.0   10 
 1/19/21  4:10a   39.1   39.4   39.1    87   35.6   1.0   ESE   0.17   3.0   ESE   39.1   38.9   38.9   35.2  30.424  0.00  0.00     0     0.00      0     0.0  0.00   0.0   0.180   0.000   67.3    49   47.5   65.8   9.10  .0757    0.000   202    7    100.0   10 
 1/19/21  4:20a   38.9   39.1   38.8    87   35.4   1.0   ESE   0.17   3.0   ESE   38.9   38.7   38.7   35.0  30.423  0.00  0.00     0     0.00      0     0.0  0.00   0.0   0.181   0.000   67.3    49   47.5   65.8   9.10  .0757    0.000   202    7    100.0   10 
 1/19/21  4:30a   38.7   38.8   38.7    88   35.5   0.0   ESE   0.00   2.0   ESE   38.7   38.6   38.6   34.9  30.425  0.00  0.00     0     0.00      0     0.0  0.00   0.0   0.183   0.000   67.2    49   47.4   65.7   9.11  .0758    0.000   202    7    100.0   10 
 1/19/21  4:40a   38.5   38.8   38.5    88   35.3   1.0   ESE   0.17   3.0   ESE   38.5   38.4   38.4   34.7  30.426  0.00  0.00     0     0.00      0     0.0  0.00   0.0   0.184   0.000   67.1    49   47.3   65.6   9.11  .0758    0.000   201    7    100.0   10 
 1/19/21  4:50a   38.7   38.7   38.4    89   35.7   2.0     E   0.33   4.0   ESE   38.3   38.6   38.2   34.5  30.425  0.00  0.00     0     0.00      0     0.0  0.00   0.0   0.183   0.000   67.1    49   47.3   65.6   9.11  .0758    0.000   201    7    100.0   10 
 1/19/21  5:00a   38.8   38.9   38.7    88   35.6   2.0     E   0.33   3.0     E   38.4   38.7   38.3   34.6  30.423  0.00  0.00     0     0.00      0     0.0  0.00   0.0   0.182   0.000   67.0    49   47.2   65.5   9.11  .0758    0.000   201    7    100.0   10 
 1/19/21  5:10a   38.7   38.9   38.7    88   35.5   1.0     E   0.17   4.0     E   38.7   38.6   38.6   34.9  30.420  0.00  0.00     0     0.00      0     0.0  0.00   0.0   0.183   0.000   66.9    49   47.1   65.4   9.11  .0758    0.000   203    7    100.0   10 
 1/19/21  5:20a   38.6   38.8   38.6    89   35.6   1.0     E   0.17   4.0     E   38.6   38.5   38.5   34.8  30.424  0.00  0.00     0     0.00      0     0.0  0.00   0.0   0.183   0.000   66.9    49   47.1   65.4   9.11  .0758    0.000   200    7    100.0   10 
 1/19/21  5:30a   39.6   39.6   38.6    90   36.9   1.0   NNE   0.17   3.0     N   39.6   39.5   39.5   35.8  30.425  0.00  0.00     0     0.00      0     0.0  0.00   0.0   0.176   0.000   66.9    49   47.1   65.4   9.11  .0758    0.000   203    7    100.0   10 
 1/19/21  5:40a   40.3   40.4   39.6    89   37.3   1.0   NNE   0.17   4.0     N   40.3   40.2   40.2   36.6  30.420  0.00  0.00     0     0.00      0     0.0  0.00   0.0   0.172   0.000   67.2    48   46.8   65.6   8.91  .0758    0.000   202    7    100.0   10 
 1/19/21  5:50a   40.0   40.3   40.0    89   37.0   1.0   NNE   0.17   3.0   NNE   40.0   39.9   39.9   36.3  30.419  0.00  0.00     0     0.00      0     0.0  0.00   0.0   0.174   0.000   67.5    48   47.1   65.9   8.90  .0757    0.000   202    7    100.0   10 
 1/19/21  6:00a   40.2   40.2   40.0    89   37.2   0.0   NNE   0.00   2.0   NNE   40.2   40.1   40.1   36.5  30.420  0.00  0.00     0     0.00      0     0.0  0.00   0.0   0.172   0.000   67.7    48   47.3   66.2   8.90  .0757    0.000   204    7    100.0   10 
 1/19/21  6:10a   39.8   40.2   39.8    88   36.5   1.0   NNE   0.17   3.0     E   39.8   39.7   39.7   36.0  30.416  0.00  0.00     0     0.00      0     0.0  0.00   0.0   0.175   0.000   68.0    48   47.6   66.5   8.89  .0756    0.000   202    7    100.0   10 
 1/19/21  6:20a   38.9   39.8   38.9    88   35.6   2.0     E   0.33   3.0     E   38.6   38.8   38.5   34.8  30.412  0.00  0.00     0     0.00      0     0.0  0.00   0.0   0.181   0.000   68.2    48   47.8   66.7   8.89  .0756    0.000   203    7    100.0   10 
 1/19/21  6:30a   38.4   38.9   38.4    88   35.2   2.0     E   0.33   4.0     E   38.0   38.3   37.9   34.2  30.405  0.00  0.00     0     0.00      0     0.0  0.00   0.0   0.185   0.000   68.5    48   48.0   66.9   8.88  .0755    0.000   202    7    100.0   10 
 1/19/21  6:40a   38.2   38.5   38.2    88   35.0   2.0   ENE   0.33   4.0     E   37.8   38.1   37.7   33.9  30.411  0.00  0.00     0     0.00      0     0.0  0.00   0.0   0.186   0.000   68.7    48   48.2   67.1   8.88  .0755    0.000   203    7    100.0   10 
 1/19/21  6:50a   38.5   38.5   38.1    89   35.5   1.0   ENE   0.17   3.0   ENE   38.5   38.4   38.4   34.7  30.413  0.00  0.00     0     0.00      0     0.0  0.00   0.0   0.184   0.000   69.0    48   48.5   67.4   8.87  .0754    0.000   203    7    100.0   10 
 1/19/21  7:00a   38.8   38.8   38.4    90   36.1   1.0   ENE   0.17   4.0     E   38.8   38.7   38.7   35.0  30.411  0.00  0.00     0     0.00      0     0.0  0.00   0.0   0.182   0.000   69.2    48   48.7   67.5   8.87  .0754    0.000   199    7    100.0   10 
 1/19/21  7:10a   39.1   39.2   38.8    89   36.1   1.0    NE   0.17   3.0     E   39.1   39.0   39.0   35.3  30.411  0.00  0.00     0     0.00      0     0.0  0.00   0.0   0.180   0.000   69.4    48   48.9   67.7   8.86  .0754    0.000   203    7    100.0   10 
 1/19/21  7:20a   38.2   39.1   38.2    88   35.0   2.0    NE   0.33   4.0    NE   37.8   38.1   37.7   33.9  30.411  0.00  0.00     0     0.00      0     0.0  0.00   0.0   0.186   0.000   69.7    48   49.1   67.9   8.86  .0753    0.000   202    7    100.0   10 
 1/19/21  7:30a   37.7   38.3   37.7    88   34.5   2.0    NE   0.33   3.0    NE   37.2   37.6   37.1   33.3  30.417  0.00  0.00     0     0.00      0     0.0  0.00   0.0   0.190   0.000   69.8    48   49.2   68.0   8.85  .0753    0.000   201    7    100.0   10 
 1/19/21  7:40a   37.3   37.7   37.3    89   34.4   1.0   ENE   0.17   3.0   ENE   37.3   37.2   37.2   33.4  30.418  0.00  0.00     0     0.00      0     0.0  0.00   0.0   0.192   0.000   69.8    48   49.2   68.0   8.85  .0753    0.000   203    7    100.0   10 
 1/19/21  7:50a   37.5   37.5   37.1    89   34.6   2.0     E   0.33   4.0   ESE   37.0   37.4   36.9   33.2  30.420  0.00  0.00     2     0.03      7     0.0  0.00   0.0   0.191   0.000   69.8    48   49.2   68.0   8.85  .0753    0.000   200    7    100.0   10 
 1/19/21  8:00a   37.4   37.5   37.4    89   34.5   1.0     E   0.17   3.0     E   37.4   37.3   37.3   33.7  30.418  0.00  0.00    10     0.14     12     0.0  0.00   0.0   0.192   0.000   69.7    48   49.1   67.9   8.86  .0753    0.000   201    7    100.0   10 
 1/19/21  8:10a   37.3   37.4   37.3    89   34.4   1.0     E   0.17   3.0     E   37.3   37.2   37.2   33.7  30.420  0.00  0.00    14     0.20     16     0.0  0.00   0.0   0.192   0.000   69.8    48   49.2   68.0   8.85  .0753    0.000   199    7    100.0   10 
 1/19/21  8:20a   37.6   37.6   37.3    89   34.7   1.0     E   0.17   3.0     E   37.6   37.5   37.5   34.2  30.423  0.00  0.00    22     0.32     26     0.0  0.00   0.0   0.190   0.000   69.8    48   49.2   68.0   8.85  .0753    0.000   203    7    100.0   10 
 1/19/21  8:30a   38.2   38.2   37.6    89   35.2   1.0   ENE   0.17   5.0   ENE   38.2   38.1   38.1   34.9  30.422  0.00  0.00    26     0.37     26     0.0  0.00   0.0   0.186   0.000   69.8    48   49.2   68.0   8.85  .0753    0.000   203    7    100.0   10 
 1/19/21  8:40a   38.7   38.7   38.2    89   35.7   1.0     E   0.17   4.0     E   38.7   38.6   38.6   35.5  30.424  0.00  0.00    31     0.44     33     0.0  0.00   0.0   0.183   0.000   69.8    48   49.2   68.0   8.85  .0753    0.000   201    7    100.0   10 
 1/19/21  8:50a   39.3   39.3   38.7    89   36.3   1.0     E   0.17   4.0     E   39.3   39.2   39.2   36.2  30.419  0.00  0.00    32     0.46     33     0.0  0.00   0.0   0.178   0.000   69.9    48   49.3   68.0   8.85  .0753    0.000   204    7    100.0   10 
 1/19/21  9:00a   39.8   39.8   39.3    88   36.5   5.0   ESE   0.83  10.0     E   36.2   39.7   36.1   33.0  30.414  0.00  0.00    29     0.42     30     0.0  0.00   0.0   0.175   0.000   70.0    48   49.4   68.1   8.85  .0753    0.001   203    7    100.0   10 
 1/19/21  9:10a   41.7   41.7   39.9    85   37.5   8.0     E   1.33  13.0   ENE   36.6   41.5   36.4   35.4  30.408  0.00  0.00    26     0.37     28     0.0  0.00   0.0   0.162   0.000   70.0    48   49.4   68.1   8.85  .0753    0.000   203    7    100.0   10 
 1/19/21  9:20a   43.3   43.3   41.8    81   37.9   8.0     E   1.33  16.0   ENE   38.6   43.1   38.4   37.5  30.406  0.00  0.00    31     0.44     35     0.0  0.00   0.0   0.151   0.000   70.1    48   49.5   68.2   8.85  .0752    0.000   203    7    100.0   10 
 1/19/21  9:30a   43.6   43.6   43.2    81   38.2   3.0   ENE   0.50   8.0   ENE   42.5   43.4   42.3   42.0  30.408  0.00  0.00    44     0.63     49     0.0  0.00   0.0   0.149   0.000   70.2    48   49.6   68.4   8.85  .0752    0.000   199    7    100.0   10 
 1/19/21  9:40a   44.5   44.5   43.6    80   38.7   6.0   ENE   1.00  14.0   ENE   41.1   44.3   40.9   40.6  30.407  0.00  0.00    44     0.63     47     0.0  0.00   0.0   0.142   0.000   70.2    48   49.6   68.4   8.85  .0752    0.000   204    7    100.0   10 
 1/19/21  9:50a   45.1   45.1   44.5    78   38.6   8.0     E   1.33  17.0     E   40.7   44.8   40.4   39.9  30.401  0.00  0.00    40     0.57     47     0.0  0.00   0.0   0.138   0.000   70.3    48   49.7   68.5   8.86  .0752    0.000   200    7    100.0   10 
 1/19/21 10:00a   45.7   45.7   45.0    78   39.2   8.0     E   1.33  16.0     E   41.4   45.4   41.1   41.7  30.396  0.00  0.00    67     0.96     84     0.0  0.00   0.0   0.134   0.000   70.3    48   49.7   68.5   8.86  .0752    0.001   200    7    100.0   10 
 1/19/21 10:10a   46.4   46.4   45.7    78   39.9   4.0   ENE   0.67  13.0     E   44.7   46.1   44.4   46.5  30.395  0.00  0.00   104     1.49    111     0.4  0.03   0.5   0.129   0.000   70.2    48   49.6   68.4   8.85  .0752    0.000   203    7    100.0   10 
 1/19/21 10:20a   47.0   47.0   46.5    77   40.2   6.0   ENE   1.00  14.0     E   44.1   46.7   43.8   45.4  30.401  0.00  0.00    91     1.30    107     0.5  0.04   0.5   0.125   0.000   70.2    48   49.6   68.4   8.85  .0752    0.000   202    7    100.0   10 
 1/19/21 10:30a   47.2   47.2   46.9    76   40.0   3.0     E   0.50   9.0    NE   46.5   46.9   46.2   46.2  30.404  0.00  0.00    54     0.77     67     0.2  0.01   0.5   0.124   0.000   70.1    48   49.5   68.2   8.85  .0752    0.000   203    7    100.0   10 
 1/19/21 10:40a   47.7   47.7   47.2    76   40.5   4.0   ENE   0.67  10.0   NNW   46.2   47.4   45.9   45.4  30.404  0.00  0.00    43     0.62     46     0.0  0.00   0.0   0.120   0.000   70.1    47   48.9   68.1   8.75  .0752    0.000   201    7    100.0   10 
 1/19/21 10:50a   48.2   48.3   47.7    75   40.6   2.0     N   0.33   8.0     N   48.2   47.9   47.9   46.9  30.403  0.00  0.00    34     0.49     39     0.0  0.00   0.0   0.117   0.000   70.2    48   49.6   68.4   8.85  .0752    0.000   204    7    100.0   10 
 1/19/21 11:00a   48.2   48.2   48.1    71   39.2   5.0   ENE   0.83  12.0   ENE   46.1   47.8   45.7   44.5  30.402  0.00  0.00    29     0.42     30     0.0  0.00   0.0   0.117   0.000   70.3    48   49.7   68.5   8.86  .0752    0.002   203    7    100.0   10 
 1/19/21 11:10a   49.0   49.0   48.2    70   39.6   2.0   NNE   0.33   7.0     S   49.0   48.6   48.6   47.5  30.405  0.00  0.00    31     0.44     33     0.0  0.00   0.0   0.111   0.000   70.3    48   49.7   68.5   8.86  .0752    0.000   204    7    100.0   10 
 1/19/21 11:20a   49.4   49.4   49.1    69   39.7   1.0   NNE   0.17   4.0   NNE   49.4   49.0   49.0   48.0  30.401  0.00  0.00    34     0.49     37     0.0  0.00   0.0   0.108   0.000   70.3    48   49.7   68.5   8.86  .0752    0.000   199    7    100.0   10 
 1/19/21 11:30a   50.0   50.0   49.4    71   41.0   5.0     W   0.83   8.0     W   48.2   49.6   47.8   46.7  30.396  0.00  0.00    33     0.47     35     0.0  0.00   0.0   0.104   0.000   70.3    48   49.7   68.5   8.86  .0752    0.000   204    7    100.0   10 
 1/19/21 11:40a   50.4   50.4   50.0    65   39.1   4.0   WSW   0.67  11.0    NW   49.3   49.8   48.7   47.8  30.396  0.00  0.00    38     0.54     40     0.0  0.00   0.0   0.101   0.000   70.3    47   49.1   68.4   8.75  .0752    0.000   205    7    100.0   10 
 1/19/21 11:50a   50.8   50.8   50.4    65   39.5   3.0   NNE   0.50   6.0     S   50.6   50.1   49.9   49.3  30.396  0.00  0.00    46     0.66     54     0.0  0.00   0.0   0.099   0.000   70.4    47   49.2   68.5   8.75  .0752    0.000   202    7    100.0   10 
 1/19/21 12:00p   51.1   51.1   50.7    62   38.5   1.0   ENE   0.17   5.0   ENE   51.1   50.3   50.3   51.0  30.393  0.00  0.00    77     1.10    109     0.5  0.04   0.8   0.097   0.000   70.4    47   49.2   68.5   8.75  .0752    0.002   202    7    100.0   10 
 1/19/21 12:10p   51.4   51.5   51.1    63   39.2   3.0   NNE   0.50   5.0   NNE   51.2   50.6   50.4   57.1  30.395  0.00  0.00   261     3.74    348     0.8  0.06   0.9   0.094   0.000   70.4    47   49.2   68.5   8.75  .0752    0.000   204    7    100.0   10 
 1/19/21 12:20p   51.2   51.7   51.2    68   41.0   4.0     N   0.67   9.0     N   50.2   50.6   49.6   58.9  30.386  0.00  0.00   376     5.39    424     0.8  0.06   0.9   0.096   0.000   70.4    47   49.2   68.5   8.75  .0752    0.000   204    7    100.0   10 
 1/19/21 12:30p   51.2   51.2   51.1    70   41.7   4.0     N   0.67   5.0     N   50.2   50.7   49.7   57.4  30.378  0.00  0.00   303     4.34    397     1.0  0.07   1.1   0.096   0.000   70.5    47   49.3   68.6   8.75  .0751    0.000   203    7    100.0   10 
 1/19/21 12:40p   51.4   51.4   51.2    69   41.6   3.0    NE   0.50   5.0    NE   51.2   50.8   50.6   53.9  30.371  0.00  0.00   148     2.12    221     1.2  0.09   1.2   0.094   0.000   70.5    47   49.3   68.6   8.75  .0751    0.000   203    7    100.0   10 
 1/19/21 12:50p   51.8   51.8   51.4    69   41.9   3.0   NNE   0.50   8.0   NNE   51.7   51.2   51.1   57.1  30.359  0.00  0.00   228     3.27    339     1.0  0.07   1.1   0.092   0.000   70.5    47   49.3   68.6   8.75  .0751    0.000   204    7    100.0   10 
 1/19/21  1:00p   52.3   52.3   51.8    69   42.4   3.0   NNE   0.50   7.0   NNE   52.2   51.6   51.5   64.0  30.351  0.00  0.00   456     6.54    496     1.0  0.07   1.1   0.088   0.000   70.5    47   49.3   68.6   8.75  .0750    0.006   202    7    100.0   10 
 1/19/21  1:10p   52.6   52.6   52.3    69   42.7   4.0    NE   0.67   8.0   NNE   51.9   51.9   51.2   64.7  30.347  0.00  0.00   478     6.85    483     1.0  0.07   1.1   0.086   0.000   70.6    47   49.4   68.8   8.75  .0750    0.000   201    7    100.0   10 
 1/19/21  1:20p   53.1   53.1   52.5    65   41.6   4.0     N   0.67   8.0   NNE   52.4   52.2   51.5   65.4  30.346  0.00  0.00   485     6.95    490     1.1  0.08   1.1   0.083   0.000   70.6    47   49.4   68.8   8.75  .0750    0.000   200    7    100.0   10 
 1/19/21  1:30p   53.5   53.5   53.0    62   40.8   2.0   NNE   0.33   7.0   NNE   53.5   52.4   52.4   64.3  30.343  0.00  0.00   422     6.05    485     1.0  0.07   1.1   0.080   0.000   70.7    49   50.6   69.1   9.05  .0750    0.000   204    7    100.0   10 
 1/19/21  1:40p   54.8   54.8   53.5    63   42.4   3.0   NNW   0.50   5.0    NW   54.8   53.7   53.7   67.1  30.340  0.00  0.00   450     6.45    464     1.0  0.07   1.0   0.071   0.000   70.9    49   50.8   69.4   9.05  .0749    0.000   204    7    100.0   10 
 1/19/21  1:50p   55.3   55.3   54.8    59   41.2   2.0     N   0.33   4.0   WNW   55.3   54.0   54.0   68.0  30.331  0.00  0.00   461     6.61    464     1.0  0.07   1.0   0.067   0.000   71.0    49   50.9   69.5   9.05  .0749    0.000   201    7    100.0   10 
 1/19/21  2:00p   55.5   55.8   55.3    60   41.8   3.0     N   0.50   7.0   NNE   55.5   54.2   54.2   67.6  30.332  0.00  0.00   437     6.26    452     0.9  0.06   1.0   0.066   0.000   71.1    49   51.0   69.6   9.05  .0749    0.010   201    7    100.0   10 
 1/19/21  2:10p   54.6   55.4   54.6    65   43.1   4.0     N   0.67   9.0     N   54.2   53.6   53.2   66.3  30.332  0.00  0.00   419     6.01    425     0.9  0.06   0.9   0.072   0.000   71.1    49   51.0   69.6   9.05  .0749    0.000   203    7    100.0   10 
 1/19/21  2:20p   53.9   54.6   53.9    68   43.6   5.0    NE   0.83   9.0   ENE   52.8   53.1   52.0   64.9  30.328  0.00  0.00   405     5.81    411     0.8  0.06   0.8   0.077   0.000   71.2    48   50.5   69.7   8.87  .0748    0.000   205    7    100.0   10 
 1/19/21  2:30p   53.9   54.0   53.7    68   43.6   3.0    NE   0.50   8.0   NNE   53.9   53.1   53.1   65.6  30.323  0.00  0.00   388     5.56    399     0.7  0.05   0.7   0.077   0.000   71.2    48   50.5   69.7   8.87  .0748    0.000   201    7    100.0   10 
 1/19/21  2:40p   53.9   54.0   53.9    70   44.3   5.0   NNE   0.83  10.0    NE   52.8   53.2   52.1   63.9  30.322  0.00  0.00   361     5.18    380     0.6  0.04   0.7   0.077   0.000   71.2    48   50.5   69.7   8.87  .0748    0.000   202    7    100.0   10 
 1/19/21  2:50p   53.3   53.8   53.3    74   45.2   8.0   NNE   1.33  13.0   NNE   50.5   52.8   50.0   61.3  30.326  0.00  0.00   355     5.09    364     0.6  0.04   0.6   0.081   0.000   71.2    48   50.5   69.7   8.87  .0748    0.000   203    7    100.0   10 
 1/19/21  3:00p   52.7   53.2   52.7    75   45.0   6.0    NE   1.00  12.0   ENE   50.8   52.2   50.3   61.9  30.324  0.00  0.00   336     4.82    348     0.5  0.04   0.5   0.085   0.000   71.2    48   50.5   69.7   8.87  .0748    0.008   204    7    100.0   10 
 1/19/21  3:10p   52.4   52.8   52.4    75   44.7   6.0    NE   1.00  12.0    NE   50.5   52.0   50.1   60.2  30.321  0.00  0.00   295     4.23    316     0.1  0.01   0.5   0.087   0.000   71.3    48   50.6   69.9   8.88  .0748    0.000   203    7    100.0   10 
 1/19/21  3:20p   52.3   52.5   52.3    76   45.0   7.0   NNE   1.17  11.0   NNE   50.0   51.9   49.6   51.1  30.320  0.00  0.00   225     3.23    267     0.0  0.00   0.0   0.088   0.000   71.3    48   50.6   69.9   8.88  .0748    0.000   203    7    100.0   10 
 1/19/21  3:30p   52.0   52.3   52.0    76   44.7   7.0   ENE   1.17  12.0    NE   49.6   51.6   49.2   50.4  30.320  0.00  0.00   211     3.02    267     0.0  0.00   0.0   0.090   0.000   71.3    48   50.6   69.9   8.88  .0748    0.000   203    7    100.0   10 
 1/19/21  3:40p   51.7   52.0   51.7    77   44.7   7.0   ENE   1.17  13.0    NE   49.2   51.4   48.9   50.2  30.314  0.00  0.00   216     3.10    227     0.0  0.00   0.0   0.092   0.000   71.3    48   50.6   69.9   8.88  .0748    0.000   203    7    100.0   10 
 1/19/21  3:50p   51.7   51.8   51.6    77   44.7   5.0   ENE   0.83  12.0   ENE   50.2   51.4   49.9   48.8  30.310  0.00  0.00   103     1.48    171     0.0  0.00   0.0   0.092   0.000   71.3    48   50.6   69.9   8.88  .0748    0.000   203    7    100.0   10 
 1/19/21  4:00p   52.3   52.3   51.7    77   45.3   4.0    NE   0.67   6.0    NE   51.5   52.0   51.2   49.2  30.309  0.00  0.00    60     0.86     62     0.0  0.00   0.0   0.088   0.000   71.3    48   50.6   69.9   8.88  .0748    0.004   199    7    100.0   10 
 1/19/21  4:10p   52.5   52.6   52.2    78   45.8   3.0   ENE   0.50   5.0    NE   52.5   52.2   52.2   50.1  30.304  0.00  0.00    55     0.79     56     0.0  0.00   0.0   0.087   0.000   71.3    48   50.6   69.9   8.88  .0748    0.000   205    7    100.0   10 
 1/19/21  4:20p   52.4   52.6   52.4    78   45.7   3.0   ENE   0.50   6.0   NNE   52.3   52.1   52.0   49.7  30.304  0.00  0.00    49     0.70     53     0.0  0.00   0.0   0.087   0.000   71.3    48   50.6   69.9   8.88  .0748    0.000   202    7    100.0   10 
 1/19/21  4:30p   51.9   52.4   51.9    78   45.3   3.0    NE   0.50   5.0    NE   51.8   51.6   51.5   49.3  30.301  0.00  0.00    51     0.73     67     0.0  0.00   0.0   0.091   0.000   71.2    48   50.5   69.7   8.87  .0748    0.000   203    7    100.0   10 
 1/19/21  4:40p   51.7   51.9   51.7    78   45.1   1.0    NE   0.17   3.0    NE   51.7   51.4   51.4   48.7  30.302  0.00  0.00    30     0.43     44     0.0  0.00   0.0   0.092   0.000   71.2    49   51.1   69.8   9.05  .0748    0.000   202    7    100.0   10 
 1/19/21  4:50p   50.6   51.7   50.6    76   43.3   0.0   ---   0.00   0.0   ---   50.6   50.4   50.4   47.3  30.300  0.00  0.00    15     0.22     18     0.0  0.00   0.0   0.100   0.000   71.2    48   50.5   69.7   8.87  .0748    0.000   204    7    100.0   10 
 1/19/21  5:00p   49.3   50.6   49.3    76   42.1   0.0    NE   0.00   1.0    NE   49.3   49.1   49.1   45.9  30.299  0.00  0.00    10     0.14     12     0.0  0.00   0.0   0.109   0.000   71.2    49   51.1   69.8   9.05  .0748    0.001   204    7    100.0   10 
 1/19/21  5:10p   48.3   49.3   48.3    77   41.4   0.0   ---   0.00   0.0   ---   48.3   48.1   48.1   44.7  30.297  0.00  0.00     4     0.06      7     0.0  0.00   0.0   0.116   0.000   71.1    49   51.0   69.6   9.05  .0748    0.000   203    7    100.0   10 
 1/19/21  5:20p   47.5   48.2   47.5    78   41.0   0.0   ---   0.00   0.0   ---   47.5   47.3   47.3   43.8  30.298  0.00  0.00     0     0.00      0     0.0  0.00   0.0   0.122   0.000   71.0    48   50.3   69.4   8.87  .0748    0.000   203    7    100.0   10 
 1/19/21  5:30p   47.2   47.6   47.2    79   41.0   0.0    NE   0.00   1.0    NE   47.2   47.0   47.0   43.5  30.294  0.00  0.00     0     0.00      0     0.0  0.00   0.0   0.124   0.000   71.1    48   50.4   69.6   8.87  .0748    0.000   200    7    100.0   10 
 1/19/21  5:40p   47.0   47.3   47.0    79   40.8   0.0    NE   0.00   2.0    NE   47.0   46.8   46.8   43.3  30.292  0.00  0.00     0     0.00      0     0.0  0.00   0.0   0.125   0.000   71.1    49   51.0   69.6   9.05  .0748    0.000   200    7    100.0   10 
 1/19/21  5:50p   46.7   47.0   46.7    79   40.5   0.0    NE   0.00   2.0    NE   46.7   46.5   46.5   43.0  30.292  0.00  0.00     0     0.00      0     0.0  0.00   0.0   0.127   0.000   71.0    49   50.9   69.5   9.05  .0748    0.000   202    7    100.0   10 
 1/19/21  6:00p   46.0   46.7   46.0    79   39.9   1.0    NE   0.17   2.0    NE   46.0   45.8   45.8   42.2  30.291  0.00  0.00     0     0.00      0     0.0  0.00   0.0   0.132   0.000   71.0    49   50.9   69.5   9.05  .0748    0.000   202    7    100.0   10 
 1/19/21  6:10p   45.6   46.0   45.5    80   39.8   0.0   ---   0.00   0.0   ---   45.6   45.4   45.4   41.8  30.290  0.00  0.00     0     0.00      0     0.0  0.00   0.0   0.135   0.000   71.0    49   50.9   69.5   9.05  .0748    0.000   205    7    100.0   10 
 1/19/21  6:20p   45.8   46.0   45.5    80   40.0   0.0   ---   0.00   0.0   ---   45.8   45.6   45.6   42.0  30.292  0.00  0.00     0     0.00      0     0.0  0.00   0.0   0.133   0.000   70.9    49   50.8   69.4   9.05  .0748    0.000   203    7    100.0   10 
 1/19/21  6:30p   45.9   45.9   45.7    81   40.4   0.0   ---   0.00   0.0   ---   45.9   45.7   45.7   42.2  30.287  0.00  0.00     0     0.00      0     0.0  0.00   0.0   0.133   0.000   70.9    49   50.8   69.4   9.05  .0748    0.000   203    7    100.0   10 
 1/19/21  6:40p   45.5   46.0   45.5    80   39.7   2.0    NE   0.33  10.0     E   45.5   45.3   45.3   41.7  30.283  0.00  0.00     0     0.00      0     0.0  0.00   0.0   0.135   0.000   70.9    49   50.8   69.4   9.05  .0748    0.000   202    7    100.0   10 
 1/19/21  6:50p   45.3   45.5   45.2    80   39.5   7.0   ESE   1.17  12.0   ESE   41.6   45.1   41.4   37.8  30.275  0.00  0.00     0     0.00      0     0.0  0.00   0.0   0.137   0.000   70.8    49   50.7   69.2   9.05  .0748    0.000   204    7    100.0   10 
 1/19/21  7:00p   45.3   45.4   45.3    80   39.5   7.0   ESE   1.17  13.0   ESE   41.6   45.1   41.4   37.8  30.269  0.00  0.00     0     0.00      0     0.0  0.00   0.0   0.137   0.000   70.8    49   50.7   69.2   9.05  .0748    0.001   199    7    100.0   10 
 1/19/21  7:10p   45.2   45.3   45.1    79   39.1   8.0   ESE   1.33  12.0     E   40.8   45.0   40.6   37.2  30.274  0.00  0.00     0     0.00      0     0.0  0.00   0.0   0.137   0.000   70.9    49   50.8   69.4   9.05  .0747    0.000   203    7    100.0   10 
 1/19/21  7:20p   45.0   45.2   45.0    79   38.9   7.0     E   1.17  12.0    SE   41.2   44.8   41.0   37.4  30.269  0.00  0.00     0     0.00      0     0.0  0.00   0.0   0.139   0.000   71.0    49   50.9   69.5   9.05  .0747    0.000   203    7    100.0   10 
 1/19/21  7:30p   45.0   45.1   44.9    79   38.9   6.0     E   1.00  13.0     E   41.7   44.8   41.5   37.9  30.265  0.00  0.00     0     0.00      0     0.0  0.00   0.0   0.139   0.000   71.0    49   50.9   69.5   9.05  .0747    0.000   202    7    100.0   10 
 1/19/21  7:40p   45.0   45.0   44.9    78   38.6   6.0     E   1.00  10.0   ESE   41.7   44.7   41.4   37.8  30.252  0.00  0.00     0     0.00      0     0.0  0.00   0.0   0.139   0.000   71.0    49   50.9   69.5   9.05  .0747    0.000   203    7    100.0   10 
 1/19/21  7:50p   45.2   45.2   44.9    77   38.4   7.0   ESE   1.17  15.0   ESE   41.4   44.9   41.1   37.5  30.249  0.00  0.00     0     0.00      0     0.0  0.00   0.0   0.137   0.000   71.0    49   50.9   69.5   9.05  .0747    0.000   202    7    100.0   10 
 1/19/21  8:00p   45.5   45.6   45.2    75   38.0   6.0     E   1.00  12.0     E   42.3   45.1   41.9   38.3  30.256  0.00  0.00     0     0.00      0     0.0  0.00   0.0   0.135   0.000   70.9    49   50.8   69.4   9.05  .0747    0.001   202    7    100.0   10 
 1/19/21  8:10p   45.8   45.8   45.5    72   37.3   5.0   ESE   0.83  11.0    SE   43.3   45.3   42.8   39.2  30.253  0.00  0.00     0     0.00      0     0.0  0.00   0.0   0.133   0.000   70.9    49   50.8   69.4   9.05  .0747    0.000   202    7    100.0   10 
 1/19/21  8:20p   46.1   46.1   45.8    70   36.9   5.0   ESE   0.83  11.0    SE   43.6   45.6   43.1   39.4  30.252  0.00  0.00     0     0.00      0     0.0  0.00   0.0   0.131   0.000   70.9    49   50.8   69.4   9.05  .0747    0.000   203    7    100.0   10 
 1/19/21  8:30p   46.2   46.2   46.1    69   36.6   6.0   ESE   1.00  14.0   SSE   43.1   45.7   42.6   38.9  30.249  0.00  0.00     0     0.00      0     0.0  0.00   0.0   0.131   0.000   70.8    49   50.7   69.2   9.05  .0747    0.000   203    7    100.0   10 
 1/19/21  8:40p   46.5   46.5   46.1    67   36.1   5.0    SE   0.83  13.0     S   44.1   45.9   43.5   39.8  30.251  0.00  0.00     0     0.00      0     0.0  0.00   0.0   0.128   0.000   70.7    49   50.6   69.1   9.05  .0747    0.000   204    7    100.0   10 
 1/19/21  8:50p   46.2   46.6   46.2    67   35.8   4.0     E   0.67  11.0   ESE   44.4   45.6   43.8   40.1  30.258  0.00  0.00     0     0.00      0     0.0  0.00   0.0   0.131   0.000   70.7    49   50.6   69.1   9.05  .0747    0.000   204    7    100.0   10 
 1/19/21  9:00p   46.1   46.1   46.0    66   35.4   6.0   ESE   1.00  10.0     E   43.0   45.4   42.3   38.6  30.259  0.00  0.00     0     0.00      0     0.0  0.00   0.0   0.131   0.000   70.7    49   50.6   69.1   9.05  .0747    0.001   199    7    100.0   10 
 1/19/21  9:10p   46.1   46.1   46.0    65   35.0   6.0   ESE   1.00  11.0     E   43.0   45.4   42.3   38.5  30.260  0.00  0.00     0     0.00      0     0.0  0.00   0.0   0.131   0.000   70.6    49   50.5   69.0   9.05  .0748    0.000   203    7    100.0   10 
 1/19/21  9:20p   46.1   46.3   46.1    65   35.0   5.0   ESE   0.83  10.0    SE   43.6   45.4   42.9   39.1  30.259  0.00  0.00     0     0.00      0     0.0  0.00   0.0   0.131   0.000   70.5    49   50.4   68.9   9.05  .0748    0.000   203    7    100.0   10 
 1/19/21  9:30p   46.0   46.2   46.0    65   34.9   6.0   ESE   1.00  11.0   ESE   42.9   45.3   42.2   38.4  30.262  0.00  0.00     0     0.00      0     0.0  0.00   0.0   0.132   0.000   70.4    49   50.3   68.7   9.05  .0748    0.000   204    7    100.0   10 
 1/19/21  9:40p   45.9   46.1   45.9    64   34.4   6.0   ESE   1.00  10.0   ESE   42.8   45.2   42.1   38.3  30.262  0.00  0.00     0     0.00      0     0.0  0.00   0.0   0.133   0.000   70.4    49   50.3   68.7   9.05  .0748    0.000   203    7    100.0   10 
 1/19/21  9:50p   45.7   46.0   45.7    66   35.0   3.0   NNE   0.50   6.0     E   44.8   45.0   44.1   40.3  30.266  0.00  0.00     0     0.00      0     0.0  0.00   0.0   0.134   0.000   70.3    49   50.2   68.6   9.05  .0748    0.000   204    7    100.0   10 
 1/19/21 10:00p   45.4   45.7   45.3    65   34.3   4.0   ESE   0.67   9.0    SE   43.5   44.7   42.8   39.0  30.262  0.00  0.00     0     0.00      0     0.0  0.00   0.0   0.136   0.000   70.2    49   50.1   68.5   9.05  .0748    0.002   204    7    100.0   10 
 1/19/21 10:10p   45.7   45.7   45.4    65   34.6   7.0     E   1.17  16.0     E   42.0   45.0   41.3   37.6  30.255  0.00  0.00     0     0.00      0     0.0  0.00   0.0   0.134   0.000   70.1    49   50.0   68.3   9.05  .0748    0.000   202    7    100.0   10 
 1/19/21 10:20p   45.3   45.7   45.3    65   34.2   8.0     E   1.33  12.0   SSE   41.0   44.6   40.3   36.7  30.253  0.00  0.00     0     0.00      0     0.0  0.00   0.0   0.137   0.000   70.0    49   50.0   68.2   9.05  .0749    0.000   202    7    100.0   10 
 1/19/21 10:30p   45.0   45.4   45.0    66   34.3   9.0   ESE   1.50  14.0   SSE   40.0   44.3   39.3   35.8  30.250  0.00  0.00     0     0.00      0     0.0  0.00   0.0   0.139   0.000   70.0    49   50.0   68.2   9.05  .0748    0.000   203    7    100.0   10 
 1/19/21 10:40p   44.7   45.1   44.6    67   34.4   9.0   ESE   1.50  17.0   ESE   39.6   44.1   39.0   35.5  30.247  0.00  0.00     0     0.00      0     0.0  0.00   0.0   0.141   0.000   69.9    49   49.9   68.1   9.05  .0749    0.000   202    7    100.0   10 
 1/19/21 10:50p   44.2   44.6   44.2    68   34.3   9.0   ESE   1.50  15.0     E   39.0   43.6   38.4   34.9  30.245  0.00  0.00     0     0.00      0     0.0  0.00   0.0   0.144   0.000   69.8    49   49.8   68.1   9.05  .0749    0.000   201    7    100.0   10 
 1/19/21 11:00p   44.0   44.3   44.0    69   34.5   8.0   ESE   1.33  17.0   ESE   39.4   43.5   38.9   35.3  30.240  0.00  0.00     0     0.00      0     0.0  0.00   0.0   0.146   0.000   69.7    48   49.1   67.9   8.86  .0749    0.002   203    7    100.0   10 
 1/19/21 11:10p   44.0   44.0   44.0    68   34.1   6.0   ESE   1.00  11.0   ESE   40.5   43.4   39.9   36.1  30.244  0.00  0.00     0     0.00      0     0.0  0.00   0.0   0.146   0.000   69.6    48   49.0   67.8   8.86  .0749    0.000   203    7    100.0   10 
 1/19/21 11:20p   44.1   44.1   43.9    67   33.8   7.0   ESE   1.17  12.0    SE   40.1   43.5   39.5   35.8  30.243  0.00  0.00     0     0.00      0     0.0  0.00   0.0   0.145   0.000   69.5    48   48.9   67.8   8.86  .0749    0.000   201    7    100.0   10 
 1/19/21 11:30p   44.2   44.2   44.0    67   33.9   8.0   ESE   1.33  12.0   ESE   39.6   43.6   39.0   35.4  30.236  0.00  0.00     0     0.00      0     0.0  0.00   0.0   0.144   0.000   69.5    48   48.9   67.8   8.86  .0749    0.000   202    7    100.0   10 
 1/19/21 11:40p   44.2   44.2   44.0    66   33.6   7.0    SE   1.17  12.0   ESE   40.2   43.5   39.5   35.8  30.234  0.00  0.00     0     0.00      0     0.0  0.00   0.0   0.144   0.000   69.4    48   48.9   67.7   8.86  .0749    0.000   200    7    100.0   10 
 1/19/21 11:50p   44.4   44.4   44.2    66   33.7   7.0   ESE   1.17  13.0   ESE   40.5   43.7   39.8   36.1  30.236  0.00  0.00     0     0.00      0     0.0  0.00   0.0   0.143   0.000   69.3    48   48.8   67.6   8.86  .0749    0.000   204    7    100.0   10 
 1/20/21 12:00a   44.4   44.5   44.3    65   33.4   7.0   ESE   1.17  13.0   ESE   40.5   43.7   39.8   36.1  30.235  0.00  0.00     0     0.00      0     0.0  0.00   0.0   0.143   0.000   69.2    48   48.7   67.5   8.87  .0750    0.002   203    7    100.0   10 
 1/20/21 12:10a   44.4   44.4   44.3    65   33.4   8.0   ESE   1.33  13.0     E   39.9   43.7   39.2   35.6  30.231  0.00  0.00     0     0.00      0     0.0  0.00   0.0   0.143   0.000   69.2    48   48.7   67.5   8.87  .0750    0.000   199    7    100.0   10 
 1/20/21 12:20a   44.7   44.7   44.3    64   33.3   8.0   ESE   1.33  13.0     E   40.2   44.0   39.5   35.9  30.229  0.00  0.00     0     0.00      0     0.0  0.00   0.0   0.141   0.000   69.1    48   48.6   67.5   8.87  .0750    0.000   202    7    100.0   10 
 1/20/21 12:30a   45.0   45.1   44.7    63   33.2   8.0   ESE   1.33  13.0    SE   40.6   44.3   39.9   36.3  30.225  0.00  0.00     0     0.00      0     0.0  0.00   0.0   0.139   0.000   69.0    48   48.5   67.4   8.87  .0750    0.000   204    7    100.0   10 
 1/20/21 12:40a   45.0   45.0   44.9    63   33.2   9.0   ESE   1.50  15.0    SE   40.0   44.3   39.3   35.8  30.225  0.00  0.00     0     0.00      0     0.0  0.00   0.0   0.139   0.000   68.9    48   48.4   67.3   8.87  .0750    0.000   202    7    100.0   10 
 1/20/21 12:50a   44.8   45.0   44.7    64   33.4   8.0   ESE   1.33  14.0   ESE   40.4   44.1   39.7   36.1  30.226  0.00  0.00     0     0.00      0     0.0  0.00   0.0   0.140   0.000   68.8    48   48.3   67.2   8.87  .0750    0.000   204    7    100.0   10 
 1/20/21  1:00a   44.7   44.8   44.6    64   33.3   7.0   ESE   1.17  13.0   SSE   40.8   44.0   40.1   36.4  30.225  0.00  0.00     0     0.00      0     0.0  0.00   0.0   0.141   0.000   68.8    48   48.3   67.2   8.87  .0750    0.002   204    7    100.0   10 
 1/20/21  1:10a   44.5   44.7   44.5    64   33.1   7.0   ESE   1.17  12.0    SE   40.6   43.8   39.9   36.2  30.226  0.00  0.00     0     0.00      0     0.0  0.00   0.0   0.142   0.000   68.7    48   48.2   67.1   8.88  .0750    0.000   204    7    100.0   10 
 1/20/21  1:20a   44.4   44.6   44.3    65   33.4   7.0   ESE   1.17  13.0     E   40.5   43.7   39.8   36.1  30.224  0.00  0.00     0     0.00      0     0.0  0.00   0.0   0.143   0.000   68.6    48   48.1   67.0   8.88  .0750    0.000   201    7    100.0   10 
 1/20/21  1:30a   44.4   44.5   44.3    64   33.0   7.0   ESE   1.17  13.0   ESE   40.5   43.7   39.8   36.1  30.223  0.00  0.00     0     0.00      0     0.0  0.00   0.0   0.143   0.000   68.6    48   48.1   67.0   8.88  .0750    0.000   201    7    100.0   10 
 1/20/21  1:40a   44.5   44.6   44.4    64   33.1   6.0   ESE   1.00  12.0   ESE   41.1   43.8   40.4   36.6  30.222  0.00  0.00     0     0.00      0     0.0  0.00   0.0   0.142   0.000   68.5    48   48.0   66.9   8.88  .0750    0.000   205    7    100.0   10 
 1/20/21  1:50a   44.4   44.5   44.4    64   33.0   7.0   ESE   1.17  11.0    SE   40.5   43.7   39.8   36.1  30.221  0.00  0.00     0     0.00      0     0.0  0.00   0.0   0.143   0.000   68.4    48   47.9   66.9   8.88  .0751    0.000   199    7    100.0   10 
 1/20/21  2:00a   44.6   44.6   44.4    64   33.2   7.0   ESE   1.17  12.0   ESE   40.7   43.9   40.0   36.3  30.219  0.00  0.00     0     0.00      0     0.0  0.00   0.0   0.142   0.000   68.3    48   47.8   66.8   8.88  .0751    0.002   202    7    100.0   10 
 1/20/21  2:10a   44.6   44.7   44.5    63   32.8   9.0   ESE   1.50  14.0   ESE   39.5   43.9   38.8   35.3  30.212  0.00  0.00     0     0.00      0     0.0  0.00   0.0   0.142   0.000   68.2    48   47.8   66.7   8.89  .0751    0.000   204    7    100.0   10 
 1/20/21  2:20a   44.4   44.6   44.4    64   33.0   8.0   ESE   1.33  15.0   ESE   39.9   43.7   39.2   35.6  30.206  0.00  0.00     0     0.00      0     0.0  0.00   0.0   0.143   0.000   68.2    48   47.8   66.7   8.89  .0751    0.000   203    7    100.0   10 
Email: AdamSPAM@StormwatchersRetreat.com (To send me email remove the word 'SPAM' from my email address.)